Latest Weather Observations for Groote Eylandt Airport

IDD60801

Issued at 11:31 am CST Monday 31 August 2015 (issued every 30 minutes, with the page automatically refreshed every 10 minutes)

About weather observations | Map of weather stations | Latest weather observations for NT | Other Formats
Station Details ID: 014518 Name: GROOTE EYLANDT AIRPORT Lat: -13.97 Lon: 136.46 Height: 13.7 m
Data from the previous 72 hours. | See also: Recent months at Groote Eylandt Airport
Date/Time
CST
Temp
°C
App
Temp
°C
Dew
Point
Rel
Hum
%
Delta-T
°C
Wind Press
QNH
hPa
Press
MSL
hPa
Rain
since 9 am
mm
Dir
 
Spd
km/h
Gust
km/h
Spd
kts
Gust
kts
31/11:30am 32.2 30.3 11.9 29 11.9 SE 13 22 7 12 1015.1 1015.1 0.0
31/11:00am 31.5 29.8 13.7 33 10.7 ESE 15 24 8 13 1015.6 1015.6 0.0
31/10:30am 30.9 30.0 14.9 37 9.8 SE 13 24 7 13 1016.0 1016.0 0.0
31/10:00am 29.4 31.1 18.5 52 7.0 SE 7 15 4 8 1016.3 1016.3 0.0
31/09:30am 27.4 29.5 20.2 65 4.7 SSE 9 15 5 8 1016.5 1016.5 0.0
31/09:00am 25.8 28.2 20.8 74 3.3 SSE 9 15 5 8 1016.4 1016.4 0.0
31/08:30am 25.0 28.2 21.7 82 2.2 S 7 13 4 7 1016.2 1016.2 0.0
31/08:00am 24.1 28.0 21.8 87 1.5 SSE 4 7 2 4 1016.1 1016.1 0.0
31/07:30am 21.6 25.1 20.4 93 0.8 ESE 2 7 1 4 1015.7 1015.7 0.0
31/07:00am 19.0 21.9 19.0 100 0.0 S 2 6 1 3 1015.4 1015.4 0.0
31/06:45am 19.5 21.8 19.5 100 0.0 S 6 9 3 5 1015.2 1015.2 0.0
31/06:30am 19.6 21.4 19.6 100 0.0 S 9 15 5 8 1015.1 1015.1 0.0
31/06:00am 16.3 18.3 16.0 98 0.2 CALM 0 7 0 4 1014.5 1014.5 0.0
31/05:30am 16.6 18.6 16.1 97 0.3 CALM 0 0 0 0 1014.3 1014.3 0.0
31/05:00am 17.0 19.2 16.4 96 0.4 CALM 0 0 0 0 1014.1 1014.0 0.0
31/04:57am 17.0 19.2 16.4 96 0.4 CALM 0 0 0 0 1014.1 1014.0 0.0
31/04:33am 17.2 19.5 16.7 97 0.3 CALM 0 0 0 0 1014.0 1013.9 0.0
31/04:30am 17.2 19.5 16.7 97 0.3 CALM 0 0 0 0 1014.0 1013.9 0.0
31/04:07am 17.3 19.2 16.8 97 0.3 E 2 6 1 3 1014.0 1013.9 0.0
31/04:00am 17.2 19.4 16.6 96 0.4 CALM 0 0 0 0 1014.0 1013.9 0.0
31/03:30am 17.6 19.9 16.8 95 0.5 CALM 0 0 0 0 1014.0 1013.9 0.0
31/03:00am 18.4 19.8 17.4 94 0.6 E 6 7 3 4 1014.1 1014.0 0.0
31/02:30am 18.6 21.2 17.6 94 0.6 CALM 0 0 0 0 1014.2 1014.1 0.0
31/02:00am 19.1 22.0 18.1 94 0.6 CALM 0 0 0 0 1014.4 1014.4 0.0
31/01:30am 19.5 22.5 18.5 94 0.6 CALM 0 0 0 0 1014.5 1014.5 0.0
31/01:00am 19.8 22.9 18.6 93 0.7 CALM 0 0 0 0 1014.7 1014.7 0.0
31/12:30am 20.3 23.5 18.8 91 0.9 CALM 0 0 0 0 1015.0 1015.0 0.0
31/12:00am 21.1 24.4 19.2 89 1.2 CALM 0 4 0 2 1015.4 1015.4 0.0
 
Date/Time
CST
Temp
°C
App
Temp
°C
Dew
Point
Rel
Hum
%
Delta-T
°C
Wind Press
QNH
hPa
Press
MSL
hPa
Rain
since 9 am
mm
Dir
 
Spd
km/h
Gust
km/h
Spd
kts
Gust
kts
30/11:30pm 21.5 24.1 19.2 87 1.5 ENE 4 6 2 3 1015.5 1015.5 0.0
30/11:00pm 21.8 25.1 19.2 85 1.6 CALM 0 6 0 3 1015.5 1015.5 0.0
30/10:30pm 22.0 25.3 19.0 83 1.9 CALM 0 0 0 0 1015.5 1015.5 0.0
30/10:00pm 22.6 26.0 19.4 82 2.0 CALM 0 0 0 0 1015.5 1015.5 0.0
30/09:30pm 23.4 25.9 19.8 80 2.3 NE 6 7 3 4 1015.7 1015.7 0.0
30/09:00pm 23.8 26.2 19.7 78 2.6 NE 6 7 3 4 1015.7 1015.7 0.0
30/08:30pm 24.2 27.4 19.7 76 2.9 E 2 7 1 4 1015.6 1015.6 0.0
30/08:00pm 24.4 26.5 19.0 72 3.4 ESE 6 9 3 5 1015.3 1015.3 0.0
30/07:30pm 25.3 26.8 19.0 68 4.0 ESE 9 13 5 7 1015.1 1015.1 0.0
30/07:00pm 26.2 26.9 18.8 63 4.7 ESE 13 17 7 9 1014.7 1014.7 0.0
30/06:30pm 27.0 28.4 18.6 60 5.4 ESE 9 15 5 8 1014.3 1014.3 0.0
30/06:00pm 28.5 28.7 17.7 52 6.8 E 13 17 7 9 1013.9 1013.8 0.0
30/05:30pm 29.5 29.3 16.7 46 8.0 ESE 13 19 7 10 1013.7 1013.6 0.0
30/05:00pm 30.3 29.4 14.8 39 9.5 E 13 22 7 12 1013.5 1013.4 0.0
30/04:30pm 30.8 30.1 14.4 36 10.0 SE 11 17 6 9 1013.3 1013.2 0.0
30/04:00pm 31.1 30.0 14.3 36 10.2 ESE 13 20 7 11 1013.2 1013.1 0.0
30/03:30pm 31.3 30.2 14.4 35 10.3 ESE 13 20 7 11 1013.3 1013.2 0.0
30/03:00pm 31.3 29.2 13.6 34 10.7 ESE 17 24 9 13 1013.4 1013.3 0.0
30/02:30pm 31.4 29.8 15.0 37 10.1 E 17 30 9 16 1013.7 1013.6 0.0
30/02:00pm 31.7 29.1 13.9 34 10.8 E 20 32 11 17 1013.9 1013.8 0.0
30/01:30pm 30.9 28.8 13.7 35 10.3 SE 17 26 9 14 1014.4 1014.4 0.0
30/01:00pm 32.7 30.8 14.3 32 11.2 E 17 32 9 17 1014.7 1014.7 0.0
30/12:30pm 31.9 29.3 13.2 32 11.2 ESE 19 28 10 15 1015.3 1015.3 0.0
30/12:00pm 31.4 29.3 13.6 33 10.7 ESE 17 26 9 14 1015.7 1015.7 0.0
30/11:30am 30.9 29.9 15.7 39 9.4 SSE 15 28 8 15 1016.1 1016.1 0.0
30/11:00am 30.5 28.9 15.0 39 9.5 S 17 26 9 14 1016.6 1016.6 0.0
30/10:30am 29.8 29.5 15.5 42 8.8 S 11 22 6 12 1016.8 1016.8 0.0
30/10:00am 29.0 29.1 17.5 49 7.3 SSE 13 20 7 11 1016.9 1016.9 0.0
30/09:30am 27.7 28.0 18.7 58 5.8 S 15 20 8 11 1016.9 1016.9 0.0
30/09:00am 26.4 28.4 20.0 68 4.2 S 9 15 5 8 1016.8 1016.8 0.0
30/08:30am 24.9 27.3 21.6 82 2.2 SSW 11 19 6 10 1016.7 1016.7 0.0
30/08:00am 22.9 26.8 20.4 86 1.6 CALM 0 6 0 3 1016.6 1016.6 0.0
30/07:32am 19.8 22.8 18.5 92 0.8 CALM 0 0 0 0 1016.3 1016.3 0.0
30/07:30am 19.7 22.7 18.5 93 0.7 CALM 0 0 0 0 1016.3 1016.3 0.0
30/07:00am 17.6 19.9 16.8 95 0.5 CALM 0 0 0 0 1015.9 1015.9 0.0
30/06:54am 17.5 19.7 16.5 94 0.6 CALM 0 0 0 0 1015.9 1015.9 0.0
30/06:30am 17.0 18.7 15.3 90 1.0 CALM 0 0 0 0 1015.6 1015.6 0.0
30/06:00am 17.6 19.6 15.9 90 1.0 CALM 0 0 0 0 1015.3 1015.3 0.0
30/05:30am 17.7 19.7 15.9 89 1.1 CALM 0 0 0 0 1015.1 1015.1 0.0
30/05:00am 18.3 20.4 16.3 88 1.2 CALM 0 0 0 0 1014.9 1014.9 0.0
30/04:30am 18.5 20.7 16.5 88 1.2 CALM 0 0 0 0 1014.7 1014.7 0.0
30/04:00am 18.9 21.5 17.4 91 0.9 CALM 0 0 0 0 1014.6 1014.6 0.0
30/03:30am 18.6 20.1 18.1 97 0.3 S 7 9 4 5 1014.6 1014.6 0.0
30/03:00am 18.1 20.4 16.8 92 0.8 CALM 0 0 0 0 1014.6 1014.6 0.0
30/02:30am 18.0 20.4 16.9 93 0.7 CALM 0 2 0 1 1014.5 1014.5 0.0
30/02:00am 18.3 20.2 16.6 90 1.0 E 2 6 1 3 1014.6 1014.6 0.0
30/01:30am 19.0 21.4 17.1 89 1.2 CALM 0 7 0 4 1014.9 1014.9 0.0
30/01:00am 19.0 21.4 17.0 88 1.2 CALM 0 0 0 0 1015.1 1015.1 0.0
30/12:30am 19.5 22.1 17.6 89 1.2 CALM 0 0 0 0 1015.4 1015.4 0.0
30/12:00am 19.7 22.2 17.3 86 1.5 CALM 0 0 0 0 1015.5 1015.5 0.0
 
Date/Time
CST
Temp
°C
App
Temp
°C
Dew
Point
Rel
Hum
%
Delta-T
°C
Wind Press
QNH
hPa
Press
MSL
hPa
Rain
since 9 am
mm
Dir
 
Spd
km/h
Gust
km/h
Spd
kts
Gust
kts
29/11:30pm 20.3 23.1 17.9 86 1.5 CALM 0 0 0 0 1015.7 1015.7 0.0
29/11:00pm 20.9 23.7 17.9 83 1.9 CALM 0 0 0 0 1015.8 1015.8 0.0
29/10:30pm 21.4 24.3 18.2 82 2.0 CALM 0 0 0 0 1015.8 1015.8 0.0
29/10:00pm 21.9 24.8 18.3 80 2.3 CALM 0 0 0 0 1016.0 1016.0 0.0
29/09:30pm 22.5 25.4 18.1 76 2.7 CALM 0 0 0 0 1015.9 1015.9 0.0
29/09:00pm 23.6 26.4 18.9 75 3.0 ESE 2 6 1 3 1016.0 1016.0 0.0
29/08:30pm 23.8 25.9 18.9 74 3.1 SE 6 7 3 4 1015.8 1015.8 0.0
29/08:00pm 24.7 26.6 18.9 70 3.7 ESE 7 9 4 5 1015.7 1015.7 0.0
29/07:30pm 25.7 27.6 18.9 66 4.3 ESE 7 9 4 5 1015.2 1015.2 0.0
29/07:00pm 26.3 28.6 19.4 66 4.5 E 6 9 3 5 1014.8 1014.8 0.0
29/06:30pm 27.0 28.7 19.4 63 4.9 NNE 9 11 5 6 1014.4 1014.4 0.0
29/06:00pm 27.8 29.0 19.1 59 5.6 NNW 11 13 6 7 1014.0 1013.9 0.0
29/05:30pm 28.7 29.5 19.1 56 6.2 NW 13 17 7 9 1013.8 1013.7 0.0
29/05:00pm 28.8 29.0 19.4 56 6.1 WNW 17 20 9 11 1013.7 1013.6 0.0
29/04:30pm 29.3 29.5 19.3 55 6.5 WNW 17 22 9 12 1013.5 1013.4 0.0
29/04:00pm 29.8 29.6 19.8 55 6.6 WNW 20 28 11 15 1013.5 1013.4 0.0
29/03:30pm 30.1 31.4 19.2 52 7.1 NW 11 17 6 9 1013.6 1013.5 0.0
29/03:00pm 30.9 29.4 13.2 34 10.6 SE 13 22 7 12 1013.7 1013.6 0.0
29/02:30pm 31.6 30.5 14.3 35 10.5 SE 13 20 7 11 1014.0 1013.9 0.0
29/02:00pm 31.7 29.7 13.9 34 10.8 SE 17 30 9 16 1014.5 1014.5 0.0
29/01:30pm 31.6 30.0 13.8 34 10.7 E 15 24 8 13 1015.0 1015.0 0.0
29/01:00pm 31.1 28.4 12.9 32 10.8 SE 19 28 10 15 1015.2 1015.2 0.0
29/12:30pm 31.2 30.0 16.0 40 9.5 ESE 17 24 9 13 1015.8 1015.8 0.0
29/12:00pm 30.7 29.6 16.3 42 9.0 ESE 17 26 9 14 1016.1 1016.1 0.0
29/11:30am 30.9 29.5 16.5 42 9.0 ESE 19 32 10 17 1016.3 1016.3 0.0
29/11:00am 30.7 28.6 16.3 42 9.0 E 22 33 12 18 1016.9 1016.9 0.0
29/10:30am 30.0 28.5 16.8 45 8.3 E 20 32 11 17 1017.4 1017.4 0.0
29/10:00am 29.4 28.4 17.6 49 7.5 ESE 19 28 10 15 1017.5 1017.5 0.0
29/09:30am 28.5 29.1 18.6 55 6.3 ESE 13 22 7 12 1017.5 1017.5 0.0
29/09:00am 27.1 28.1 20.2 66 4.5 ESE 15 22 8 12 1017.5 1017.5 0.0
29/08:30am 25.6 27.1 21.3 77 2.8 ESE 15 20 8 11 1017.4 1017.4 0.0
29/08:00am 24.7 27.2 21.8 84 1.9 ESE 11 19 6 10 1017.3 1017.3 0.0
29/07:30am 23.4 26.5 22.2 93 0.8 ESE 9 15 5 8 1017.1 1017.1 0.0
29/07:00am 22.4 25.9 22.1 98 0.2 E 7 11 4 6 1016.7 1016.7 0.0
29/06:30am 21.9 25.3 21.7 99 0.1 SE 6 9 3 5 1016.2 1016.2 0.0
29/06:00am 21.1 25.1 20.6 97 0.3 CALM 0 6 0 3 1015.8 1015.8 0.0
29/05:30am 21.3 25.5 21.0 98 0.2 CALM 0 0 0 0 1015.4 1015.4 0.0
29/05:00am 20.7 24.5 20.2 97 0.3 CALM 0 0 0 0 1015.2 1015.2 0.0
29/04:30am 20.7 24.1 20.2 97 0.3 SE 2 6 1 3 1015.1 1015.1 0.0
29/04:13am 20.5 24.1 19.8 96 0.4 CALM 0 0 0 0 1015.1 1015.1 0.0
29/04:00am 20.4 23.7 19.9 97 0.3 SE 2 6 1 3 1015.0 1015.0 0.0
29/03:30am 18.5 20.8 17.8 96 0.4 SSW 2 7 1 4 1015.1 1015.1 0.0
29/03:28am 18.4 21.1 17.8 96 0.4 CALM 0 7 0 4 1015.1 1015.1 0.0
29/03:00am 18.3 20.8 17.3 94 0.6 CALM 0 0 0 0 1014.7 1014.7 0.0
29/02:30am 18.9 20.8 17.7 93 0.7 E 4 6 2 3 1014.8 1014.8 0.0
29/02:00am 19.2 22.0 18.0 93 0.7 CALM 0 0 0 0 1015.1 1015.1 0.0
29/01:30am 19.5 22.4 18.2 92 0.8 CALM 0 0 0 0 1015.3 1015.3 0.0
29/01:00am 19.9 22.0 18.2 90 1.1 E 4 6 2 3 1015.6 1015.6 0.0
29/12:30am 20.4 23.4 18.5 89 1.2 CALM 0 0 0 0 1016.1 1016.1 0.0
29/12:00am 20.8 23.5 18.7 88 1.3 E 2 6 1 3 1016.4 1016.4 0.0
 
Date/Time
CST
Temp
°C
App
Temp
°C
Dew
Point
Rel
Hum
%
Delta-T
°C
Wind Press
QNH
hPa
Press
MSL
hPa
Rain
since 9 am
mm
Dir
 
Spd
km/h
Gust
km/h
Spd
kts
Gust
kts
28/11:30pm 21.3 23.4 19.0 87 1.4 E 6 7 3 4 1016.5 1016.5 0.0
28/11:00pm 21.7 23.9 19.6 88 1.3 SE 7 9 4 5 1016.6 1016.6 0.0
28/10:30pm 21.8 25.3 19.5 87 1.5 CALM 0 0 0 0 1016.7 1016.7 0.0
28/10:00pm 22.2 25.7 19.6 85 1.7 CALM 0 0 0 0 1016.8 1016.8 0.0
28/09:30pm 22.5 25.3 19.7 84 1.8 SE 4 7 2 4 1016.6 1016.6 0.0
28/09:00pm 22.9 26.5 19.7 82 2.0 CALM 0 0 0 0 1016.3 1016.3 0.0
28/08:30pm 24.4 26.9 19.9 76 2.9 ENE 6 7 3 4 1016.0 1016.0 0.0
28/08:00pm 25.0 27.7 20.3 75 3.1 ENE 6 9 3 5 1015.6 1015.6 0.0
28/07:30pm 25.5 28.4 21.0 76 3.0 NNE 7 9 4 5 1015.2 1015.2 0.0
28/07:00pm 25.8 28.6 20.8 74 3.3 NNE 7 9 4 5 1014.7 1014.7 0.0
28/06:30pm 26.3 28.6 20.6 71 3.7 NNW 9 15 5 8 1014.3 1014.3 0.0
28/06:00pm 27.5 29.0 21.3 69 4.1 NNW 15 17 8 9 1013.8 1013.7 0.0
28/05:30pm 28.3 30.1 21.1 65 4.8 NNW 13 19 7 10 1013.4 1013.3 0.0
28/05:00pm 29.0 30.2 20.7 61 5.5 NW 15 24 8 13 1013.3 1013.2 0.0
28/04:30pm 28.9 30.1 20.6 61 5.5 NW 15 20 8 11 1013.0 1012.9 0.0
28/04:00pm 29.2 30.5 20.9 61 5.5 NW 15 22 8 12 1013.0 1012.9 0.0
28/03:30pm 29.9 32.6 21.3 60 5.8 NW 9 20 5 11 1013.2 1013.1 0.0
28/03:00pm 30.0 30.8 18.1 49 7.6 ENE 11 17 6 9 1013.4 1013.3 0.0
28/02:30pm 30.1 30.5 18.2 49 7.6 E 13 24 7 13 1013.6 1013.5 0.0
28/02:00pm 30.0 29.5 17.8 48 7.8 ENE 17 24 9 13 1014.0 1013.9 0.0
28/01:30pm 30.4 30.0 18.8 50 7.5 ENE 19 30 10 16 1014.4 1014.4 0.0
28/01:00pm 30.0 29.6 18.8 51 7.2 E 19 28 10 15 1014.8 1014.8 0.0
28/12:30pm 30.2 29.5 18.6 49 7.5 E 20 26 11 14 1015.4 1015.4 0.0
28/12:00pm 29.7 29.2 17.8 48 7.6 ESE 17 26 9 14 1015.8 1015.8 0.0

Other Formats:

Comma delimited format used in spreadsheet applications
http://www.bom.gov.au/fwo/IDD60801/IDD60801.94153.axf

JavaScript Object Notation format (JSON) in row-major order
http://www.bom.gov.au/fwo/IDD60801/IDD60801.94153.json